sensor_id;sensor_type;location;lat;lon;timestamp;P1;durP1;ratioP1;P2;durP2;ratioP2
7729;SDS011;3908;52.310;7.230;2022-09-09T00:00:25;5.93;;;2.13;;
7729;SDS011;3908;52.310;7.230;2022-09-09T00:03:16;3.83;;;2.07;;
7729;SDS011;3908;52.310;7.230;2022-09-09T00:06:08;5.20;;;2.30;;
7729;SDS011;3908;52.310;7.230;2022-09-09T00:09:03;7.37;;;2.50;;
7729;SDS011;3908;52.310;7.230;2022-09-09T00:11:58;4.33;;;2.57;;
7729;SDS011;3908;52.310;7.230;2022-09-09T00:14:50;4.27;;;2.30;;
7729;SDS011;3908;52.310;7.230;2022-09-09T00:17:42;4.70;;;2.40;;
7729;SDS011;3908;52.310;7.230;2022-09-09T00:20:35;5.43;;;2.50;;
7729;SDS011;3908;52.310;7.230;2022-09-09T00:23:33;4.77;;;2.43;;
7729;SDS011;3908;52.310;7.230;2022-09-09T00:26:26;2.23;;;2.00;;
7729;SDS011;3908;52.310;7.230;2022-09-09T00:29:20;3.70;;;2.40;;
7729;SDS011;3908;52.310;7.230;2022-09-09T00:32:14;3.40;;;2.60;;
7729;SDS011;3908;52.310;7.230;2022-09-09T00:35:03;6.50;;;2.33;;
7729;SDS011;3908;52.310;7.230;2022-09-09T00:38:03;4.93;;;2.60;;
7729;SDS011;3908;52.310;7.230;2022-09-09T00:41:03;6.00;;;2.27;;
7729;SDS011;3908;52.310;7.230;2022-09-09T00:43:56;4.40;;;2.40;;
7729;SDS011;3908;52.310;7.230;2022-09-09T00:46:54;3.83;;;2.33;;
7729;SDS011;3908;52.310;7.230;2022-09-09T00:49:53;3.83;;;2.17;;
7729;SDS011;3908;52.310;7.230;2022-09-09T00:52:48;4.17;;;2.27;;
7729;SDS011;3908;52.310;7.230;2022-09-09T00:55:45;5.60;;;1.97;;
7729;SDS011;3908;52.310;7.230;2022-09-09T00:58:40;5.17;;;1.90;;
7729;SDS011;3908;52.310;7.230;2022-09-09T01:01:29;2.87;;;1.77;;
7729;SDS011;3908;52.310;7.230;2022-09-09T01:04:17;3.30;;;2.07;;
7729;SDS011;3908;52.310;7.230;2022-09-09T01:07:16;3.43;;;1.77;;
7729;SDS011;3908;52.310;7.230;2022-09-09T01:10:04;3.90;;;1.70;;
7729;SDS011;3908;52.310;7.230;2022-09-09T01:12:58;4.97;;;1.57;;
7729;SDS011;3908;52.310;7.230;2022-09-09T01:15:53;1.97;;;1.40;;
7729;SDS011;3908;52.310;7.230;2022-09-09T01:18:43;2.50;;;1.50;;
7729;SDS011;3908;52.310;7.230;2022-09-09T01:21:35;2.83;;;1.93;;
7729;SDS011;3908;52.310;7.230;2022-09-09T01:24:30;3.03;;;1.67;;
7729;SDS011;3908;52.310;7.230;2022-09-09T01:27:25;5.23;;;1.77;;
7729;SDS011;3908;52.310;7.230;2022-09-09T01:30:13;3.43;;;1.53;;
7729;SDS011;3908;52.310;7.230;2022-09-09T01:33:02;2.53;;;1.60;;
7729;SDS011;3908;52.310;7.230;2022-09-09T01:35:50;2.57;;;1.67;;
7729;SDS011;3908;52.310;7.230;2022-09-09T01:38:41;3.00;;;1.57;;
7729;SDS011;3908;52.310;7.230;2022-09-09T01:41:29;3.80;;;1.50;;
7729;SDS011;3908;52.310;7.230;2022-09-09T01:44:17;2.60;;;1.60;;
7729;SDS011;3908;52.310;7.230;2022-09-09T01:47:06;1.90;;;1.40;;
7729;SDS011;3908;52.310;7.230;2022-09-09T01:49:53;3.63;;;1.87;;
7729;SDS011;3908;52.310;7.230;2022-09-09T01:52:40;5.57;;;2.07;;
7729;SDS011;3908;52.310;7.230;2022-09-09T01:55:29;2.73;;;1.70;;
7729;SDS011;3908;52.310;7.230;2022-09-09T01:58:21;3.47;;;1.70;;
7729;SDS011;3908;52.310;7.230;2022-09-09T02:01:22;2.40;;;1.40;;
7729;SDS011;3908;52.310;7.230;2022-09-09T02:04:18;3.70;;;1.60;;
7729;SDS011;3908;52.310;7.230;2022-09-09T02:07:21;2.50;;;1.70;;
7729;SDS011;3908;52.310;7.230;2022-09-09T02:10:20;2.83;;;1.97;;
7729;SDS011;3908;52.310;7.230;2022-09-09T02:13:10;4.07;;;2.20;;
7729;SDS011;3908;52.310;7.230;2022-09-09T02:16:00;4.73;;;2.40;;
7729;SDS011;3908;52.310;7.230;2022-09-09T02:18:55;3.77;;;2.30;;
7729;SDS011;3908;52.310;7.230;2022-09-09T02:21:47;2.23;;;1.87;;
7729;SDS011;3908;52.310;7.230;2022-09-09T02:24:36;3.37;;;2.40;;
7729;SDS011;3908;52.310;7.230;2022-09-09T02:27:26;5.03;;;2.20;;
7729;SDS011;3908;52.310;7.230;2022-09-09T02:30:14;5.97;;;2.57;;
7729;SDS011;3908;52.310;7.230;2022-09-09T02:33:02;9.70;;;2.97;;
7729;SDS011;3908;52.310;7.230;2022-09-09T02:35:54;3.43;;;2.30;;
7729;SDS011;3908;52.310;7.230;2022-09-09T02:38:47;5.13;;;3.00;;
7729;SDS011;3908;52.310;7.230;2022-09-09T02:41:39;2.77;;;2.30;;
7729;SDS011;3908;52.310;7.230;2022-09-09T02:44:27;8.23;;;2.70;;
7729;SDS011;3908;52.310;7.230;2022-09-09T02:47:16;5.03;;;2.87;;
7729;SDS011;3908;52.310;7.230;2022-09-09T02:50:14;3.50;;;2.43;;
7729;SDS011;3908;52.310;7.230;2022-09-09T02:53:07;5.20;;;2.03;;
7729;SDS011;3908;52.310;7.230;2022-09-09T02:56:01;4.17;;;2.40;;
7729;SDS011;3908;52.310;7.230;2022-09-09T02:58:52;6.00;;;2.43;;
7729;SDS011;3908;52.310;7.230;2022-09-09T03:01:39;4.53;;;2.73;;
7729;SDS011;3908;52.310;7.230;2022-09-09T03:04:26;4.73;;;2.13;;
7729;SDS011;3908;52.310;7.230;2022-09-09T03:07:14;3.03;;;2.23;;
7729;SDS011;3908;52.310;7.230;2022-09-09T03:10:04;3.07;;;2.40;;
7729;SDS011;3908;52.310;7.230;2022-09-09T03:12:52;3.23;;;2.23;;
7729;SDS011;3908;52.310;7.230;2022-09-09T03:15:38;2.97;;;2.50;;
7729;SDS011;3908;52.310;7.230;2022-09-09T03:18:25;2.37;;;2.17;;
7729;SDS011;3908;52.310;7.230;2022-09-09T03:21:13;3.90;;;2.33;;
7729;SDS011;3908;52.310;7.230;2022-09-09T03:24:00;3.43;;;2.13;;
7729;SDS011;3908;52.310;7.230;2022-09-09T03:26:50;5.40;;;2.40;;
7729;SDS011;3908;52.310;7.230;2022-09-09T03:29:37;5.50;;;2.10;;
7729;SDS011;3908;52.310;7.230;2022-09-09T03:32:24;2.80;;;2.50;;
7729;SDS011;3908;52.310;7.230;2022-09-09T03:35:11;3.07;;;2.50;;
7729;SDS011;3908;52.310;7.230;2022-09-09T03:37:59;3.10;;;2.30;;
7729;SDS011;3908;52.310;7.230;2022-09-09T03:40:49;4.20;;;2.40;;
7729;SDS011;3908;52.310;7.230;2022-09-09T03:43:41;3.53;;;2.90;;
7729;SDS011;3908;52.310;7.230;2022-09-09T03:46:28;4.17;;;3.00;;
7729;SDS011;3908;52.310;7.230;2022-09-09T03:49:16;7.53;;;3.30;;
7729;SDS011;3908;52.310;7.230;2022-09-09T03:52:05;4.30;;;3.70;;
7729;SDS011;3908;52.310;7.230;2022-09-09T03:54:52;5.50;;;3.93;;
7729;SDS011;3908;52.310;7.230;2022-09-09T03:57:40;4.27;;;3.60;;
7729;SDS011;3908;52.310;7.230;2022-09-09T04:00:29;4.20;;;3.67;;
7729;SDS011;3908;52.310;7.230;2022-09-09T04:03:16;7.43;;;3.80;;
7729;SDS011;3908;52.310;7.230;2022-09-09T04:06:04;6.63;;;4.23;;
7729;SDS011;3908;52.310;7.230;2022-09-09T04:08:52;5.57;;;4.60;;
7729;SDS011;3908;52.310;7.230;2022-09-09T04:11:40;4.60;;;3.73;;
7729;SDS011;3908;52.310;7.230;2022-09-09T04:14:27;4.67;;;3.83;;
7729;SDS011;3908;52.310;7.230;2022-09-09T04:17:15;6.77;;;4.10;;
7729;SDS011;3908;52.310;7.230;2022-09-09T04:20:02;7.40;;;4.20;;
7729;SDS011;3908;52.310;7.230;2022-09-09T04:22:50;6.00;;;4.43;;
7729;SDS011;3908;52.310;7.230;2022-09-09T04:25:37;5.80;;;4.83;;
7729;SDS011;3908;52.310;7.230;2022-09-09T04:28:25;9.07;;;4.57;;
7729;SDS011;3908;52.310;7.230;2022-09-09T04:31:15;6.53;;;4.83;;
7729;SDS011;3908;52.310;7.230;2022-09-09T04:34:05;6.43;;;4.70;;
7729;SDS011;3908;52.310;7.230;2022-09-09T04:36:52;6.73;;;5.00;;
7729;SDS011;3908;52.310;7.230;2022-09-09T04:39:40;6.23;;;4.70;;
7729;SDS011;3908;52.310;7.230;2022-09-09T04:42:27;8.10;;;4.90;;
7729;SDS011;3908;52.310;7.230;2022-09-09T04:45:14;9.83;;;5.10;;
7729;SDS011;3908;52.310;7.230;2022-09-09T04:48:01;6.77;;;5.13;;
7729;SDS011;3908;52.310;7.230;2022-09-09T04:50:56;7.43;;;5.23;;
7729;SDS011;3908;52.310;7.230;2022-09-09T04:53:44;9.33;;;4.80;;
7729;SDS011;3908;52.310;7.230;2022-09-09T04:56:32;12.10;;;6.53;;
7729;SDS011;3908;52.310;7.230;2022-09-09T04:59:19;6.77;;;5.57;;
7729;SDS011;3908;52.310;7.230;2022-09-09T05:02:06;11.63;;;6.00;;
7729;SDS011;3908;52.310;7.230;2022-09-09T05:04:53;10.53;;;5.60;;
7729;SDS011;3908;52.310;7.230;2022-09-09T05:07:42;8.87;;;6.43;;
7729;SDS011;3908;52.310;7.230;2022-09-09T05:10:29;9.73;;;6.23;;
7729;SDS011;3908;52.310;7.230;2022-09-09T05:13:18;8.27;;;6.50;;
7729;SDS011;3908;52.310;7.230;2022-09-09T05:16:06;10.77;;;6.70;;
7729;SDS011;3908;52.310;7.230;2022-09-09T05:18:56;9.23;;;7.00;;
7729;SDS011;3908;52.310;7.230;2022-09-09T05:21:44;8.60;;;6.67;;
7729;SDS011;3908;52.310;7.230;2022-09-09T05:24:33;8.73;;;6.70;;
7729;SDS011;3908;52.310;7.230;2022-09-09T05:27:20;9.93;;;6.70;;
7729;SDS011;3908;52.310;7.230;2022-09-09T05:30:08;10.20;;;6.57;;
7729;SDS011;3908;52.310;7.230;2022-09-09T05:32:58;11.30;;;5.87;;
7729;SDS011;3908;52.310;7.230;2022-09-09T05:35:45;11.40;;;6.57;;
7729;SDS011;3908;52.310;7.230;2022-09-09T05:38:32;7.37;;;6.23;;
7729;SDS011;3908;52.310;7.230;2022-09-09T05:41:21;10.77;;;6.30;;
7729;SDS011;3908;52.310;7.230;2022-09-09T05:44:09;9.53;;;6.47;;
7729;SDS011;3908;52.310;7.230;2022-09-09T05:46:56;11.97;;;7.77;;
7729;SDS011;3908;52.310;7.230;2022-09-09T05:49:43;14.00;;;6.50;;
7729;SDS011;3908;52.310;7.230;2022-09-09T05:52:31;14.10;;;6.77;;
7729;SDS011;3908;52.310;7.230;2022-09-09T05:55:18;8.73;;;6.47;;
7729;SDS011;3908;52.310;7.230;2022-09-09T05:58:06;11.97;;;6.47;;
7729;SDS011;3908;52.310;7.230;2022-09-09T06:01:00;10.57;;;6.13;;
7729;SDS011;3908;52.310;7.230;2022-09-09T06:03:49;8.73;;;6.10;;
7729;SDS011;3908;52.310;7.230;2022-09-09T06:06:37;12.30;;;6.67;;
7729;SDS011;3908;52.310;7.230;2022-09-09T06:09:25;9.30;;;5.70;;
7729;SDS011;3908;52.310;7.230;2022-09-09T06:12:12;11.87;;;6.00;;
7729;SDS011;3908;52.310;7.230;2022-09-09T06:15:01;9.83;;;5.80;;
7729;SDS011;3908;52.310;7.230;2022-09-09T06:17:53;6.23;;;4.57;;
7729;SDS011;3908;52.310;7.230;2022-09-09T06:20:40;6.83;;;4.80;;
7729;SDS011;3908;52.310;7.230;2022-09-09T06:23:27;9.27;;;4.63;;
7729;SDS011;3908;52.310;7.230;2022-09-09T06:26:15;9.47;;;5.40;;
7729;SDS011;3908;52.310;7.230;2022-09-09T06:29:04;9.57;;;5.00;;
7729;SDS011;3908;52.310;7.230;2022-09-09T06:31:53;8.27;;;4.83;;
7729;SDS011;3908;52.310;7.230;2022-09-09T06:34:39;7.73;;;4.43;;
7729;SDS011;3908;52.310;7.230;2022-09-09T06:37:27;6.00;;;4.10;;
7729;SDS011;3908;52.310;7.230;2022-09-09T06:40:14;8.17;;;4.50;;
7729;SDS011;3908;52.310;7.230;2022-09-09T06:43:01;8.17;;;4.80;;
7729;SDS011;3908;52.310;7.230;2022-09-09T06:45:54;6.27;;;4.53;;
7729;SDS011;3908;52.310;7.230;2022-09-09T06:48:44;7.30;;;4.53;;
7729;SDS011;3908;52.310;7.230;2022-09-09T06:51:32;6.07;;;5.07;;
7729;SDS011;3908;52.310;7.230;2022-09-09T06:54:21;4.97;;;3.53;;
7729;SDS011;3908;52.310;7.230;2022-09-09T06:57:09;9.77;;;4.13;;
7729;SDS011;3908;52.310;7.230;2022-09-09T06:59:56;10.10;;;4.33;;
7729;SDS011;3908;52.310;7.230;2022-09-09T07:02:43;10.77;;;3.83;;
7729;SDS011;3908;52.310;7.230;2022-09-09T07:05:32;6.67;;;4.00;;
7729;SDS011;3908;52.310;7.230;2022-09-09T07:08:19;8.20;;;3.50;;
7729;SDS011;3908;52.310;7.230;2022-09-09T07:11:07;8.87;;;3.90;;
7729;SDS011;3908;52.310;7.230;2022-09-09T07:13:55;7.27;;;3.47;;
7729;SDS011;3908;52.310;7.230;2022-09-09T07:16:44;8.30;;;3.73;;
7729;SDS011;3908;52.310;7.230;2022-09-09T07:19:31;8.73;;;3.50;;
7729;SDS011;3908;52.310;7.230;2022-09-09T07:22:21;7.17;;;3.07;;
7729;SDS011;3908;52.310;7.230;2022-09-09T07:25:08;5.70;;;2.80;;
7729;SDS011;3908;52.310;7.230;2022-09-09T07:27:55;6.23;;;2.87;;
7729;SDS011;3908;52.310;7.230;2022-09-09T07:30:42;8.80;;;3.00;;
7729;SDS011;3908;52.310;7.230;2022-09-09T07:33:30;7.07;;;2.50;;
7729;SDS011;3908;52.310;7.230;2022-09-09T07:36:19;6.47;;;2.90;;
7729;SDS011;3908;52.310;7.230;2022-09-09T07:39:10;5.50;;;2.50;;
7729;SDS011;3908;52.310;7.230;2022-09-09T07:41:59;3.47;;;2.00;;
7729;SDS011;3908;52.310;7.230;2022-09-09T07:44:46;4.20;;;2.40;;
7729;SDS011;3908;52.310;7.230;2022-09-09T07:47:33;9.77;;;2.47;;
7729;SDS011;3908;52.310;7.230;2022-09-09T07:50:20;10.20;;;2.67;;
7729;SDS011;3908;52.310;7.230;2022-09-09T07:53:07;8.03;;;2.93;;
7729;SDS011;3908;52.310;7.230;2022-09-09T07:55:56;6.00;;;2.30;;
7729;SDS011;3908;52.310;7.230;2022-09-09T07:58:50;6.13;;;2.40;;
7729;SDS011;3908;52.310;7.230;2022-09-09T08:01:39;8.40;;;2.40;;
7729;SDS011;3908;52.310;7.230;2022-09-09T08:04:27;7.13;;;1.92;;
7729;SDS011;3908;52.310;7.230;2022-09-09T08:07:14;10.65;;;2.38;;
7729;SDS011;3908;52.310;7.230;2022-09-09T08:10:02;11.57;;;2.38;;
7729;SDS011;3908;52.310;7.230;2022-09-09T08:12:51;6.65;;;2.00;;
7729;SDS011;3908;52.310;7.230;2022-09-09T08:15:38;10.02;;;3.22;;
7729;SDS011;3908;52.310;7.230;2022-09-09T08:18:26;10.75;;;2.63;;
7729;SDS011;3908;52.310;7.230;2022-09-09T08:21:14;4.68;;;1.80;;
7729;SDS011;3908;52.310;7.230;2022-09-09T08:24:03;6.63;;;2.10;;
7729;SDS011;3908;52.310;7.230;2022-09-09T08:26:51;10.68;;;2.38;;
7729;SDS011;3908;52.310;7.230;2022-09-09T08:29:40;6.82;;;2.05;;
7729;SDS011;3908;52.310;7.230;2022-09-09T08:32:27;9.27;;;2.60;;
7729;SDS011;3908;52.310;7.230;2022-09-09T08:35:14;7.53;;;2.92;;
7729;SDS011;3908;52.310;7.230;2022-09-09T08:38:02;3.78;;;1.70;;
7729;SDS011;3908;52.310;7.230;2022-09-09T08:40:49;5.43;;;2.38;;
7729;SDS011;3908;52.310;7.230;2022-09-09T08:43:45;8.00;;;2.20;;
7729;SDS011;3908;52.310;7.230;2022-09-09T08:46:39;10.07;;;3.15;;
7729;SDS011;3908;52.310;7.230;2022-09-09T08:49:38;5.82;;;2.30;;
7729;SDS011;3908;52.310;7.230;2022-09-09T08:52:43;9.35;;;2.70;;
7729;SDS011;3908;52.310;7.230;2022-09-09T08:55:38;8.18;;;3.08;;
7729;SDS011;3908;52.310;7.230;2022-09-09T08:58:31;6.70;;;3.00;;
7729;SDS011;3908;52.310;7.230;2022-09-09T09:01:29;7.20;;;3.20;;
7729;SDS011;3908;52.310;7.230;2022-09-09T09:04:37;9.82;;;3.35;;
7729;SDS011;3908;52.310;7.230;2022-09-09T09:07:33;41.95;;;4.80;;
7729;SDS011;3908;52.310;7.230;2022-09-09T09:10:37;9.55;;;3.55;;
7729;SDS011;3908;52.310;7.230;2022-09-09T09:13:33;6.30;;;3.10;;
7729;SDS011;3908;52.310;7.230;2022-09-09T09:16:30;5.05;;;2.90;;
7729;SDS011;3908;52.310;7.230;2022-09-09T09:19:22;7.32;;;3.58;;
7729;SDS011;3908;52.310;7.230;2022-09-09T09:22:14;6.63;;;3.38;;
7729;SDS011;3908;52.310;7.230;2022-09-09T09:25:07;6.90;;;3.28;;
7729;SDS011;3908;52.310;7.230;2022-09-09T09:28:03;9.80;;;3.20;;
7729;SDS011;3908;52.310;7.230;2022-09-09T09:30:58;7.53;;;2.95;;
7729;SDS011;3908;52.310;7.230;2022-09-09T09:33:50;6.82;;;3.20;;
7729;SDS011;3908;52.310;7.230;2022-09-09T09:36:39;7.65;;;2.80;;
7729;SDS011;3908;52.310;7.230;2022-09-09T09:39:31;10.68;;;3.20;;
7729;SDS011;3908;52.310;7.230;2022-09-09T09:42:21;7.68;;;2.92;;
7729;SDS011;3908;52.310;7.230;2022-09-09T09:45:13;5.30;;;2.83;;
7729;SDS011;3908;52.310;7.230;2022-09-09T09:48:06;5.57;;;2.10;;
7729;SDS011;3908;52.310;7.230;2022-09-09T09:50:57;6.72;;;2.25;;
7729;SDS011;3908;52.310;7.230;2022-09-09T09:53:45;5.07;;;1.98;;
7729;SDS011;3908;52.310;7.230;2022-09-09T09:56:36;7.30;;;2.00;;
7729;SDS011;3908;52.310;7.230;2022-09-09T09:59:24;8.60;;;2.03;;
7729;SDS011;3908;52.310;7.230;2022-09-09T10:02:21;9.15;;;2.03;;
7729;SDS011;3908;52.310;7.230;2022-09-09T10:05:13;5.70;;;1.90;;
7729;SDS011;3908;52.310;7.230;2022-09-09T10:08:03;6.85;;;2.00;;
7729;SDS011;3908;52.310;7.230;2022-09-09T10:10:54;8.82;;;1.75;;
7729;SDS011;3908;52.310;7.230;2022-09-09T10:13:58;4.57;;;1.80;;
7729;SDS011;3908;52.310;7.230;2022-09-09T10:16:57;6.85;;;2.22;;
7729;SDS011;3908;52.310;7.230;2022-09-09T10:19:54;5.65;;;2.42;;
7729;SDS011;3908;52.310;7.230;2022-09-09T10:22:49;7.18;;;2.50;;
7729;SDS011;3908;52.310;7.230;2022-09-09T10:25:42;8.80;;;2.85;;
7729;SDS011;3908;52.310;7.230;2022-09-09T10:28:54;6.30;;;2.20;;
7729;SDS011;3908;52.310;7.230;2022-09-09T10:31:56;6.68;;;2.25;;
7729;SDS011;3908;52.310;7.230;2022-09-09T10:34:55;6.10;;;1.90;;
7729;SDS011;3908;52.310;7.230;2022-09-09T10:41:16;5.82;;;1.70;;
7729;SDS011;3908;52.310;7.230;2022-09-09T10:44:22;6.88;;;1.48;;
7729;SDS011;3908;52.310;7.230;2022-09-09T10:47:30;2.95;;;1.08;;
7729;SDS011;3908;52.310;7.230;2022-09-09T10:50:33;3.90;;;1.30;;
7729;SDS011;3908;52.310;7.230;2022-09-09T10:53:45;6.70;;;1.50;;
7729;SDS011;3908;52.310;7.230;2022-09-09T10:56:39;6.68;;;1.70;;
7729;SDS011;3908;52.310;7.230;2022-09-09T10:59:33;4.75;;;1.30;;
7729;SDS011;3908;52.310;7.230;2022-09-09T11:02:26;6.75;;;1.40;;
7729;SDS011;3908;52.310;7.230;2022-09-09T11:05:16;4.65;;;1.05;;
7729;SDS011;3908;52.310;7.230;2022-09-09T11:08:06;3.70;;;1.27;;
7729;SDS011;3908;52.310;7.230;2022-09-09T11:11:04;5.53;;;1.40;;
7729;SDS011;3908;52.310;7.230;2022-09-09T11:14:00;5.88;;;1.33;;
7729;SDS011;3908;52.310;7.230;2022-09-09T11:16:53;3.60;;;1.10;;
7729;SDS011;3908;52.310;7.230;2022-09-09T11:19:45;5.40;;;1.10;;
7729;SDS011;3908;52.310;7.230;2022-09-09T11:22:34;3.70;;;1.27;;
7729;SDS011;3908;52.310;7.230;2022-09-09T11:25:26;2.47;;;1.10;;
7729;SDS011;3908;52.310;7.230;2022-09-09T11:28:27;4.30;;;1.20;;
7729;SDS011;3908;52.310;7.230;2022-09-09T11:31:21;4.50;;;1.35;;
7729;SDS011;3908;52.310;7.230;2022-09-09T11:34:35;6.00;;;1.65;;
7729;SDS011;3908;52.310;7.230;2022-09-09T11:37:35;7.90;;;1.52;;
7729;SDS011;3908;52.310;7.230;2022-09-09T11:40:36;4.32;;;1.10;;
7729;SDS011;3908;52.310;7.230;2022-09-09T11:43:26;3.97;;;1.40;;
7729;SDS011;3908;52.310;7.230;2022-09-09T11:46:16;3.70;;;1.25;;
7729;SDS011;3908;52.310;7.230;2022-09-09T11:49:21;4.95;;;1.48;;
7729;SDS011;3908;52.310;7.230;2022-09-09T11:52:20;7.10;;;1.63;;
7729;SDS011;3908;52.310;7.230;2022-09-09T11:55:20;2.45;;;1.40;;
7729;SDS011;3908;52.310;7.230;2022-09-09T11:58:15;7.25;;;1.48;;
7729;SDS011;3908;52.310;7.230;2022-09-09T12:01:12;3.22;;;1.40;;
7729;SDS011;3908;52.310;7.230;2022-09-09T12:04:10;6.38;;;1.95;;
7729;SDS011;3908;52.310;7.230;2022-09-09T12:07:33;5.30;;;1.60;;
7729;SDS011;3908;52.310;7.230;2022-09-09T12:10:25;4.75;;;1.40;;
7729;SDS011;3908;52.310;7.230;2022-09-09T12:13:15;4.80;;;1.25;;
7729;SDS011;3908;52.310;7.230;2022-09-09T12:16:03;4.93;;;1.35;;
7729;SDS011;3908;52.310;7.230;2022-09-09T12:18:51;2.20;;;1.10;;
7729;SDS011;3908;52.310;7.230;2022-09-09T12:21:39;4.20;;;1.15;;
7729;SDS011;3908;52.310;7.230;2022-09-09T12:24:35;4.25;;;1.33;;
7729;SDS011;3908;52.310;7.230;2022-09-09T12:27:31;2.67;;;1.10;;
7729;SDS011;3908;52.310;7.230;2022-09-09T12:30:22;2.78;;;1.13;;
7729;SDS011;3908;52.310;7.230;2022-09-09T12:33:17;3.60;;;1.30;;
7729;SDS011;3908;52.310;7.230;2022-09-09T12:36:05;5.20;;;1.23;;
7729;SDS011;3908;52.310;7.230;2022-09-09T12:38:59;5.65;;;1.42;;
7729;SDS011;3908;52.310;7.230;2022-09-09T12:41:58;1.85;;;0.90;;
7729;SDS011;3908;52.310;7.230;2022-09-09T12:44:55;4.80;;;1.27;;
7729;SDS011;3908;52.310;7.230;2022-09-09T12:47:44;4.70;;;1.38;;
7729;SDS011;3908;52.310;7.230;2022-09-09T12:50:35;4.13;;;1.20;;
7729;SDS011;3908;52.310;7.230;2022-09-09T12:53:26;5.63;;;1.27;;
7729;SDS011;3908;52.310;7.230;2022-09-09T12:56:20;5.60;;;1.40;;
7729;SDS011;3908;52.310;7.230;2022-09-09T12:59:21;2.95;;;1.15;;
7729;SDS011;3908;52.310;7.230;2022-09-09T13:02:14;1.45;;;0.82;;
7729;SDS011;3908;52.310;7.230;2022-09-09T13:05:13;4.75;;;0.90;;
7729;SDS011;3908;52.310;7.230;2022-09-09T13:08:03;2.25;;;1.05;;
7729;SDS011;3908;52.310;7.230;2022-09-09T13:10:53;2.25;;;1.00;;
7729;SDS011;3908;52.310;7.230;2022-09-09T13:13:49;2.05;;;1.05;;
7729;SDS011;3908;52.310;7.230;2022-09-09T13:16:39;2.28;;;0.98;;
7729;SDS011;3908;52.310;7.230;2022-09-09T13:19:26;2.15;;;1.00;;
7729;SDS011;3908;52.310;7.230;2022-09-09T13:22:20;4.40;;;1.10;;
7729;SDS011;3908;52.310;7.230;2022-09-09T13:25:17;2.30;;;1.10;;
7729;SDS011;3908;52.310;7.230;2022-09-09T13:28:18;4.55;;;1.45;;
7729;SDS011;3908;52.310;7.230;2022-09-09T13:31:19;4.40;;;1.40;;
7729;SDS011;3908;52.310;7.230;2022-09-09T13:34:13;3.75;;;1.10;;
7729;SDS011;3908;52.310;7.230;2022-09-09T13:37:19;4.20;;;1.00;;
7729;SDS011;3908;52.310;7.230;2022-09-09T13:40:14;4.50;;;1.40;;
7729;SDS011;3908;52.310;7.230;2022-09-09T13:43:10;4.32;;;1.25;;
7729;SDS011;3908;52.310;7.230;2022-09-09T13:49:20;4.63;;;1.20;;
7729;SDS011;3908;52.310;7.230;2022-09-09T13:52:09;4.35;;;1.17;;
7729;SDS011;3908;52.310;7.230;2022-09-09T13:54:59;3.58;;;1.20;;
7729;SDS011;3908;52.310;7.230;2022-09-09T13:57:52;2.20;;;0.95;;
7729;SDS011;3908;52.310;7.230;2022-09-09T14:00:40;4.00;;;1.27;;
7729;SDS011;3908;52.310;7.230;2022-09-09T14:03:26;2.75;;;1.00;;
7729;SDS011;3908;52.310;7.230;2022-09-09T14:06:15;3.78;;;1.10;;
7729;SDS011;3908;52.310;7.230;2022-09-09T14:09:04;3.90;;;1.00;;
7729;SDS011;3908;52.310;7.230;2022-09-09T14:11:51;3.95;;;1.27;;
7729;SDS011;3908;52.310;7.230;2022-09-09T14:14:38;4.20;;;1.42;;
7729;SDS011;3908;52.310;7.230;2022-09-09T14:17:27;6.50;;;1.60;;
7729;SDS011;3908;52.310;7.230;2022-09-09T14:20:16;4.15;;;1.48;;
7729;SDS011;3908;52.310;7.230;2022-09-09T14:23:07;3.97;;;1.30;;
7729;SDS011;3908;52.310;7.230;2022-09-09T14:25:57;5.30;;;1.20;;
7729;SDS011;3908;52.310;7.230;2022-09-09T14:28:44;4.18;;;1.23;;
7729;SDS011;3908;52.310;7.230;2022-09-09T14:31:31;4.68;;;1.42;;
7729;SDS011;3908;52.310;7.230;2022-09-09T14:34:19;5.15;;;1.40;;
7729;SDS011;3908;52.310;7.230;2022-09-09T14:37:06;4.45;;;1.40;;
7729;SDS011;3908;52.310;7.230;2022-09-09T14:39:54;4.13;;;1.80;;
7729;SDS011;3908;52.310;7.230;2022-09-09T14:42:42;3.25;;;1.40;;
7729;SDS011;3908;52.310;7.230;2022-09-09T14:45:29;4.68;;;1.90;;
7729;SDS011;3908;52.310;7.230;2022-09-09T14:48:16;4.85;;;1.67;;
7729;SDS011;3908;52.310;7.230;2022-09-09T14:51:06;3.28;;;1.30;;
7729;SDS011;3908;52.310;7.230;2022-09-09T14:53:55;2.53;;;1.13;;
7729;SDS011;3908;52.310;7.230;2022-09-09T14:56:44;3.30;;;1.27;;
7729;SDS011;3908;52.310;7.230;2022-09-09T14:59:32;1.63;;;0.88;;
7729;SDS011;3908;52.310;7.230;2022-09-09T15:02:20;2.97;;;1.25;;
7729;SDS011;3908;52.310;7.230;2022-09-09T15:05:07;2.03;;;1.15;;
7729;SDS011;3908;52.310;7.230;2022-09-09T15:07:56;2.10;;;1.33;;
7729;SDS011;3908;52.310;7.230;2022-09-09T15:10:43;2.10;;;1.20;;
7729;SDS011;3908;52.310;7.230;2022-09-09T15:13:34;3.65;;;1.10;;
7729;SDS011;3908;52.310;7.230;2022-09-09T15:16:23;3.58;;;1.20;;
7729;SDS011;3908;52.310;7.230;2022-09-09T15:19:12;3.47;;;1.23;;
7729;SDS011;3908;52.310;7.230;2022-09-09T15:21:59;2.28;;;1.00;;
7729;SDS011;3908;52.310;7.230;2022-09-09T15:24:46;3.60;;;1.55;;
7729;SDS011;3908;52.310;7.230;2022-09-09T15:27:33;2.33;;;1.30;;
7729;SDS011;3908;52.310;7.230;2022-09-09T15:30:22;2.33;;;1.20;;
7729;SDS011;3908;52.310;7.230;2022-09-09T15:33:08;5.75;;;1.50;;
7729;SDS011;3908;52.310;7.230;2022-09-09T15:35:55;2.80;;;1.58;;
7729;SDS011;3908;52.310;7.230;2022-09-09T15:38:42;2.85;;;1.20;;
7729;SDS011;3908;52.310;7.230;2022-09-09T15:41:30;2.92;;;1.45;;
7729;SDS011;3908;52.310;7.230;2022-09-09T15:44:18;2.38;;;1.40;;
7729;SDS011;3908;52.310;7.230;2022-09-09T15:47:07;2.35;;;1.50;;
7729;SDS011;3908;52.310;7.230;2022-09-09T15:49:54;2.03;;;1.17;;
7729;SDS011;3908;52.310;7.230;2022-09-09T15:52:41;4.60;;;1.42;;
7729;SDS011;3908;52.310;7.230;2022-09-09T15:55:28;2.67;;;1.35;;
7729;SDS011;3908;52.310;7.230;2022-09-09T15:58:15;4.93;;;1.38;;
7729;SDS011;3908;52.310;7.230;2022-09-09T16:01:02;2.75;;;1.40;;
7729;SDS011;3908;52.310;7.230;2022-09-09T16:03:51;2.63;;;1.45;;
7729;SDS011;3908;52.310;7.230;2022-09-09T16:06:38;3.22;;;1.40;;
7729;SDS011;3908;52.310;7.230;2022-09-09T16:09:25;4.38;;;1.23;;
7729;SDS011;3908;52.310;7.230;2022-09-09T16:12:13;3.00;;;1.85;;
7729;SDS011;3908;52.310;7.230;2022-09-09T16:15:00;3.92;;;1.63;;
7729;SDS011;3908;52.310;7.230;2022-09-09T16:17:47;2.95;;;1.60;;
7729;SDS011;3908;52.310;7.230;2022-09-09T16:20:36;3.92;;;1.70;;
7729;SDS011;3908;52.310;7.230;2022-09-09T16:23:22;3.17;;;1.20;;
7729;SDS011;3908;52.310;7.230;2022-09-09T16:26:10;3.00;;;1.30;;
7729;SDS011;3908;52.310;7.230;2022-09-09T16:28:59;3.90;;;1.83;;
7729;SDS011;3908;52.310;7.230;2022-09-09T16:31:47;3.85;;;1.40;;
7729;SDS011;3908;52.310;7.230;2022-09-09T16:34:36;3.30;;;1.95;;
7729;SDS011;3908;52.310;7.230;2022-09-09T16:37:24;3.92;;;1.75;;
7729;SDS011;3908;52.310;7.230;2022-09-09T16:40:11;3.00;;;2.03;;
7729;SDS011;3908;52.310;7.230;2022-09-09T16:42:58;3.78;;;1.95;;
7729;SDS011;3908;52.310;7.230;2022-09-09T16:45:46;5.00;;;1.85;;
7729;SDS011;3908;52.310;7.230;2022-09-09T16:48:33;4.35;;;1.80;;
7729;SDS011;3908;52.310;7.230;2022-09-09T16:51:21;2.80;;;1.80;;
7729;SDS011;3908;52.310;7.230;2022-09-09T16:54:11;4.80;;;2.65;;
7729;SDS011;3908;52.310;7.230;2022-09-09T16:56:59;7.78;;;2.10;;
7729;SDS011;3908;52.310;7.230;2022-09-09T16:59:52;3.97;;;1.98;;
7729;SDS011;3908;52.310;7.230;2022-09-09T17:02:41;3.17;;;1.90;;
7729;SDS011;3908;52.310;7.230;2022-09-09T17:05:28;3.88;;;2.10;;
7729;SDS011;3908;52.310;7.230;2022-09-09T17:08:15;5.25;;;2.10;;
7729;SDS011;3908;52.310;7.230;2022-09-09T17:11:04;4.47;;;2.53;;
7729;SDS011;3908;52.310;7.230;2022-09-09T17:13:59;3.50;;;1.90;;
7729;SDS011;3908;52.310;7.230;2022-09-09T17:16:46;2.43;;;2.10;;
7729;SDS011;3908;52.310;7.230;2022-09-09T17:19:33;4.45;;;2.10;;
7729;SDS011;3908;52.310;7.230;2022-09-09T17:22:20;4.05;;;2.08;;
7729;SDS011;3908;52.310;7.230;2022-09-09T17:25:08;3.85;;;1.70;;
7729;SDS011;3908;52.310;7.230;2022-09-09T17:27:57;3.35;;;1.13;;
7729;SDS011;3908;52.310;7.230;2022-09-09T17:30:44;5.63;;;1.65;;
7729;SDS011;3908;52.310;7.230;2022-09-09T17:33:33;2.40;;;1.40;;
7729;SDS011;3908;52.310;7.230;2022-09-09T17:36:20;1.70;;;1.30;;
7729;SDS011;3908;52.310;7.230;2022-09-09T17:39:09;3.73;;;2.03;;
7729;SDS011;3908;52.310;7.230;2022-09-09T17:41:56;1.77;;;1.20;;
7729;SDS011;3908;52.310;7.230;2022-09-09T17:44:45;2.10;;;1.30;;
7729;SDS011;3908;52.310;7.230;2022-09-09T17:47:32;2.07;;;1.20;;